createdAt,value
2022-08-10T00:00:35.830Z,16.10
2022-08-10T00:03:02.776Z,16.10
2022-08-10T00:05:43.837Z,16.10
2022-08-10T00:08:23.977Z,16.10
2022-08-10T00:10:54.939Z,16.00
2022-08-10T00:13:22.290Z,15.90
2022-08-10T00:15:53.528Z,15.90
2022-08-10T00:18:35.249Z,15.80
2022-08-10T00:21:05.559Z,15.70
2022-08-10T00:23:33.141Z,15.70
2022-08-10T00:26:00.322Z,15.60
2022-08-10T00:28:27.176Z,15.50
2022-08-10T00:30:54.339Z,15.50
2022-08-10T00:33:21.212Z,15.40
2022-08-10T00:35:48.793Z,15.50
2022-08-10T00:38:15.730Z,15.40
2022-08-10T00:40:42.728Z,15.20
2022-08-10T00:43:09.578Z,15.00
2022-08-10T00:45:36.691Z,14.90
2022-08-10T00:48:04.037Z,14.70
2022-08-10T00:50:31.074Z,14.50
2022-08-10T00:52:58.380Z,14.30
2022-08-10T00:55:25.993Z,14.10
2022-08-10T00:57:54.969Z,14.00
2022-08-10T01:00:24.247Z,13.80
2022-08-10T01:02:51.663Z,13.70
2022-08-10T01:05:20.417Z,13.60
2022-08-10T01:08:14.768Z,13.50
2022-08-10T01:10:47.620Z,13.50
2022-08-10T01:13:37.786Z,13.50
2022-08-10T01:16:53.719Z,13.50
2022-08-10T01:19:52.921Z,13.40
2022-08-10T01:22:41.307Z,13.30
2022-08-10T01:26:11.633Z,13.20
2022-08-10T01:28:50.140Z,13.20
2022-08-10T01:31:22.972Z,13.10
2022-08-10T01:34:02.747Z,13.10
2022-08-10T01:36:34.818Z,13.10
2022-08-10T01:39:04.119Z,13.10
2022-08-10T01:41:46.488Z,13.00
2022-08-10T01:44:20.233Z,12.90
2022-08-10T01:46:56.988Z,12.90
2022-08-10T01:49:26.360Z,12.90
2022-08-10T01:52:00.437Z,12.90
2022-08-10T01:54:30.098Z,12.90
2022-08-10T01:57:01.227Z,12.80
2022-08-10T01:59:41.141Z,12.70
2022-08-10T02:02:23.557Z,12.70
2022-08-10T02:04:52.672Z,12.70
2022-08-10T02:07:23.977Z,12.70
2022-08-10T02:09:59.116Z,12.70
2022-08-10T02:12:30.322Z,12.60
2022-08-10T02:15:01.194Z,12.60
2022-08-10T02:18:00.868Z,12.60
2022-08-10T02:20:31.574Z,12.60
2022-08-10T02:23:09.050Z,12.60
2022-08-10T02:25:41.703Z,12.50
2022-08-10T02:28:29.869Z,12.50
2022-08-10T02:31:06.638Z,12.40
2022-08-10T02:33:37.214Z,12.40
2022-08-10T02:36:08.722Z,12.50
2022-08-10T02:38:58.937Z,12.40
2022-08-10T02:45:12.826Z,12.40
2022-08-10T02:45:18.781Z,12.40
2022-08-10T02:47:51.544Z,12.30
2022-08-10T02:50:36.401Z,12.30
2022-08-10T02:53:51.390Z,12.20
2022-08-10T02:55:59.470Z,12.20
2022-08-10T02:58:43.434Z,12.10
2022-08-10T03:01:14.838Z,12.10
2022-08-10T03:03:50.063Z,12.10
2022-08-10T03:06:22.115Z,12.00
2022-08-10T03:08:50.864Z,12.00
2022-08-10T03:12:35.170Z,12.10
2022-08-10T03:14:18.212Z,12.00
2022-08-10T03:16:46.925Z,12.00
2022-08-10T03:20:34.807Z,12.10
2022-08-10T03:22:04.164Z,12.10
2022-08-10T03:24:33.402Z,12.00
2022-08-10T03:27:01.486Z,12.00
2022-08-10T03:29:29.214Z,11.90
2022-08-10T03:31:58.161Z,11.90
2022-08-10T03:34:33.394Z,12.00
2022-08-10T03:37:01.156Z,11.90
2022-08-10T03:39:28.600Z,12.00
2022-08-10T03:42:00.022Z,12.00
2022-08-10T03:44:31.989Z,11.90
2022-08-10T03:47:04.329Z,11.90
2022-08-10T03:49:44.924Z,11.80
2022-08-10T03:52:13.107Z,11.80
2022-08-10T03:54:40.801Z,11.80
2022-08-10T03:57:08.297Z,11.80
2022-08-10T03:59:36.657Z,11.80
2022-08-10T04:02:46.665Z,11.90
2022-08-10T04:04:53.294Z,12.00
2022-08-10T04:07:20.531Z,12.10
2022-08-10T04:09:55.266Z,12.00
2022-08-10T04:12:23.727Z,12.00
2022-08-10T04:14:52.858Z,12.00
2022-08-10T04:18:02.723Z,11.90
2022-08-10T04:20:20.809Z,11.90
2022-08-10T04:22:52.060Z,11.80
2022-08-10T04:25:21.010Z,11.80
2022-08-10T04:27:48.574Z,11.70
2022-08-10T04:30:15.863Z,11.70
2022-08-10T04:32:45.540Z,11.70
2022-08-10T04:35:14.398Z,11.70
2022-08-10T04:37:46.938Z,11.80
2022-08-10T04:40:28.730Z,11.90
2022-08-10T04:43:07.312Z,12.00
2022-08-10T04:45:47.797Z,12.00
2022-08-10T04:48:40.982Z,12.00
2022-08-10T04:51:10.965Z,11.90
2022-08-10T04:54:05.318Z,11.90
2022-08-10T04:56:32.503Z,12.00
2022-08-10T04:59:00.526Z,12.10
2022-08-10T05:02:13.436Z,12.10
2022-08-10T05:04:38.006Z,12.20
2022-08-10T05:07:02.024Z,12.30
2022-08-10T05:09:28.871Z,12.40
2022-08-10T05:11:55.706Z,12.60
2022-08-10T05:14:22.530Z,12.70
2022-08-10T05:16:49.331Z,12.80
2022-08-10T05:19:16.982Z,12.90
2022-08-10T05:22:02.214Z,13.00
2022-08-10T05:24:32.233Z,13.20
2022-08-10T05:27:08.354Z,13.30
2022-08-10T05:29:37.265Z,13.40
2022-08-10T05:32:04.568Z,13.50
2022-08-10T05:34:31.451Z,13.70
2022-08-10T05:36:58.782Z,13.80
2022-08-10T05:39:32.193Z,13.90
2022-08-10T05:42:01.749Z,14.10
2022-08-10T05:44:30.051Z,14.20
2022-08-10T05:46:57.047Z,14.20
2022-08-10T05:49:24.346Z,14.40
2022-08-10T05:51:51.813Z,14.50
2022-08-10T05:54:19.221Z,14.60
2022-08-10T05:56:55.379Z,14.70
2022-08-10T06:00:30.847Z,14.80
2022-08-10T06:02:35.434Z,14.90
2022-08-10T06:05:11.821Z,15.00
2022-08-10T06:07:44.042Z,15.20
2022-08-10T06:10:13.850Z,15.30
2022-08-10T06:12:54.149Z,15.40
2022-08-10T06:15:50.227Z,15.50
2022-08-10T06:18:14.399Z,15.60
2022-08-10T06:20:41.925Z,15.70
2022-08-10T06:23:09.857Z,15.90
2022-08-10T06:26:10.503Z,16.00
2022-08-10T06:28:25.695Z,16.10
2022-08-10T06:30:54.597Z,16.30
2022-08-10T06:33:24.939Z,16.40
2022-08-10T06:35:54.748Z,16.50
2022-08-10T06:38:25.099Z,16.60
2022-08-10T06:40:55.748Z,16.70
2022-08-10T06:43:25.754Z,16.90
2022-08-10T06:46:07.915Z,17.00
2022-08-10T06:48:44.709Z,17.10
2022-08-10T06:51:18.178Z,17.20
2022-08-10T06:53:53.097Z,17.40
2022-08-10T06:56:36.480Z,17.50
2022-08-10T06:59:22.058Z,17.70
2022-08-10T07:01:54.303Z,17.90
2022-08-10T07:04:35.513Z,18.00
2022-08-10T07:07:04.782Z,18.20
2022-08-10T07:09:36.052Z,18.30
2022-08-10T07:12:07.631Z,18.40
2022-08-10T07:14:40.649Z,18.50
2022-08-10T07:17:15.537Z,18.70
2022-08-10T07:19:50.187Z,18.80
2022-08-10T07:23:08.153Z,18.80
2022-08-10T07:25:12.463Z,18.90
2022-08-10T07:28:00.042Z,19.10
2022-08-10T07:30:32.842Z,19.10
2022-08-10T07:33:02.396Z,19.40
2022-08-10T07:35:41.654Z,19.50
2022-08-10T07:38:25.723Z,19.70
2022-08-10T07:40:53.969Z,20.00
2022-08-10T07:43:23.747Z,20.20
2022-08-10T07:45:51.289Z,20.30
2022-08-10T07:48:28.752Z,20.40
2022-08-10T07:51:00.278Z,20.40
2022-08-10T07:53:32.387Z,20.60
2022-08-10T07:56:08.130Z,20.70
2022-08-10T07:58:52.029Z,20.80
2022-08-10T08:01:23.271Z,21.00
2022-08-10T08:04:05.885Z,21.00
2022-08-10T08:06:40.045Z,21.00
2022-08-10T08:09:07.020Z,21.20
2022-08-10T08:11:36.603Z,21.20
2022-08-10T08:14:07.488Z,21.30
2022-08-10T08:16:37.336Z,21.50
2022-08-10T08:24:30.563Z,21.70
2022-08-10T08:24:41.668Z,21.80
2022-08-10T08:27:10.952Z,21.90
2022-08-10T08:29:41.331Z,21.90
2022-08-10T08:32:09.698Z,22.00
2022-08-10T08:34:42.389Z,22.20
2022-08-10T08:37:11.186Z,22.40
2022-08-10T08:39:38.627Z,22.50
2022-08-10T08:42:43.008Z,22.50
2022-08-10T08:45:31.561Z,22.70
2022-08-10T08:48:19.514Z,22.80
2022-08-10T08:51:13.554Z,22.90
2022-08-10T08:54:23.782Z,23.00
2022-08-10T08:57:06.214Z,23.20
2022-08-10T08:59:41.768Z,23.40
2022-08-10T09:02:54.759Z,23.70
2022-08-10T09:05:58.544Z,23.70
2022-08-10T09:08:43.543Z,23.80
2022-08-10T09:11:19.528Z,24.00
2022-08-10T09:13:58.876Z,24.10
2022-08-10T09:16:30.308Z,24.30
2022-08-10T09:19:34.900Z,24.60
2022-08-10T09:22:45.009Z,25.00
2022-08-10T09:25:17.033Z,25.70
2022-08-10T09:27:49.199Z,26.20
2022-08-10T09:30:29.102Z,26.50
2022-08-10T09:36:22.796Z,26.70
2022-08-10T09:36:32.257Z,27.20
2022-08-10T09:40:56.459Z,27.10
2022-08-10T09:42:22.943Z,27.30
2022-08-10T09:45:13.113Z,27.30
2022-08-10T09:48:01.394Z,27.60
2022-08-10T09:51:34.465Z,27.60
2022-08-10T09:54:00.714Z,28.00
2022-08-10T09:57:17.888Z,28.30
2022-08-10T10:00:08.927Z,28.60
2022-08-10T10:02:54.634Z,28.00
2022-08-10T10:05:39.354Z,28.20
2022-08-10T10:08:43.134Z,28.50
2022-08-10T10:11:33.243Z,27.90
2022-08-10T10:14:18.631Z,28.40
2022-08-10T10:17:08.607Z,28.50
2022-08-10T10:19:55.018Z,28.70
2022-08-10T10:22:52.431Z,28.90
2022-08-10T10:25:49.825Z,29.10
2022-08-10T10:29:11.346Z,29.10
2022-08-10T10:31:27.140Z,29.50
2022-08-10T10:33:59.944Z,29.30
2022-08-10T10:36:30.691Z,29.10
2022-08-10T10:39:00.066Z,29.10
2022-08-10T10:41:56.188Z,29.20
2022-08-10T10:45:07.653Z,29.30
2022-08-10T10:48:01.591Z,29.60
2022-08-10T10:50:28.482Z,29.90
2022-08-10T10:53:10.787Z,30.60
2022-08-10T10:56:14.574Z,30.60
2022-08-10T10:59:55.284Z,30.10
2022-08-10T11:02:32.658Z,29.80
2022-08-10T11:05:26.945Z,30.60
2022-08-10T11:08:04.096Z,30.20
2022-08-10T11:10:47.431Z,30.50
2022-08-10T11:14:24.716Z,30.90
2022-08-10T11:17:00.052Z,30.40
2022-08-10T11:20:01.491Z,30.70
2022-08-10T11:22:40.126Z,30.60
2022-08-10T11:25:28.664Z,30.80
2022-08-10T11:28:14.206Z,30.40
2022-08-10T11:30:50.017Z,30.40
2022-08-10T11:33:32.777Z,30.70
2022-08-10T11:36:08.828Z,30.80
2022-08-10T11:39:18.457Z,30.50
2022-08-10T11:42:09.451Z,30.90
2022-08-10T11:44:47.414Z,31.40
2022-08-10T11:47:19.909Z,30.80
2022-08-10T11:49:57.559Z,30.80
2022-08-10T11:53:03.636Z,30.90
2022-08-10T11:55:33.097Z,30.90
2022-08-10T11:58:28.225Z,30.70
2022-08-10T12:00:57.264Z,31.00
2022-08-10T12:03:25.573Z,30.60
2022-08-10T12:05:55.414Z,30.60
2022-08-10T12:10:04.616Z,30.60
2022-08-10T12:11:26.632Z,30.60
2022-08-10T12:14:22.510Z,30.40
2022-08-10T12:17:15.934Z,30.30
2022-08-10T12:20:01.690Z,31.40
2022-08-10T12:22:38.666Z,30.80
2022-08-10T12:25:11.296Z,30.60
2022-08-10T12:28:10.912Z,30.70
2022-08-10T12:30:44.585Z,31.60
2022-08-10T12:33:23.950Z,31.70
2022-08-10T12:36:21.837Z,32.20
2022-08-10T12:39:03.414Z,32.20
2022-08-10T12:41:44.521Z,31.40
2022-08-10T12:44:22.382Z,31.10
2022-08-10T12:47:19.010Z,30.80
2022-08-10T12:50:13.687Z,31.40
2022-08-10T12:53:44.409Z,31.70
2022-08-10T12:56:11.351Z,31.20
2022-08-10T12:59:00.272Z,31.20
2022-08-10T13:02:06.631Z,31.10
2022-08-10T13:04:39.058Z,31.30
2022-08-10T13:07:07.644Z,31.40
2022-08-10T13:09:55.919Z,31.10
2022-08-10T13:12:35.887Z,30.80
2022-08-10T13:15:45.680Z,30.70
2022-08-10T13:18:18.690Z,31.60
2022-08-10T13:20:52.090Z,32.10
2022-08-10T13:23:28.157Z,31.80
2022-08-10T13:25:58.065Z,31.70
2022-08-10T13:28:45.372Z,31.80
2022-08-10T13:31:18.572Z,32.30
2022-08-10T13:34:38.863Z,31.60
2022-08-10T13:36:41.583Z,31.50
2022-08-10T13:39:09.039Z,31.20
2022-08-10T13:41:40.362Z,31.40
2022-08-10T13:44:09.670Z,31.20
2022-08-10T13:46:40.295Z,31.10
2022-08-10T13:49:09.544Z,31.70
2022-08-10T13:51:54.481Z,32.40
2022-08-10T13:54:38.874Z,32.10
2022-08-10T13:57:06.790Z,32.00
2022-08-10T14:00:36.676Z,31.90
2022-08-10T14:02:30.705Z,32.70
2022-08-10T14:04:59.699Z,32.10
2022-08-10T14:07:27.623Z,32.50
2022-08-10T14:10:07.190Z,31.90
2022-08-10T14:12:41.341Z,31.40
2022-08-10T14:15:17.345Z,31.90
2022-08-10T14:17:47.743Z,32.00
2022-08-10T14:20:21.341Z,32.40
2022-08-10T14:22:48.737Z,32.60
2022-08-10T14:25:15.837Z,32.40
2022-08-10T14:28:03.502Z,32.10
2022-08-10T14:30:32.940Z,32.70
2022-08-10T14:33:04.519Z,32.90
2022-08-10T14:36:20.552Z,32.80
2022-08-10T14:38:26.886Z,33.00
2022-08-10T14:40:56.137Z,33.40
2022-08-10T14:43:34.402Z,32.70
2022-08-10T14:46:06.507Z,33.00
2022-08-10T14:48:39.371Z,33.60
2022-08-10T14:51:07.832Z,33.30
2022-08-10T14:53:36.906Z,33.50
2022-08-10T14:56:10.907Z,33.50
2022-08-10T14:59:05.718Z,33.30
2022-08-10T15:01:59.880Z,33.30
2022-08-10T15:04:26.883Z,33.30
2022-08-10T15:07:00.105Z,32.90
2022-08-10T15:10:00.350Z,31.90
2022-08-10T15:12:27.167Z,31.80
2022-08-10T15:14:58.470Z,32.00
2022-08-10T15:17:34.725Z,32.00
2022-08-10T15:20:13.499Z,32.40
2022-08-10T15:22:50.154Z,32.80
2022-08-10T15:25:25.160Z,32.80
2022-08-10T15:28:13.146Z,33.00
2022-08-10T15:30:48.703Z,32.40
2022-08-10T15:33:59.499Z,31.60
2022-08-10T15:37:02.491Z,31.00
2022-08-10T15:40:21.253Z,30.90
2022-08-10T15:42:26.588Z,31.60
2022-08-10T15:44:55.510Z,32.20
2022-08-10T15:47:27.130Z,32.90
2022-08-10T15:50:19.893Z,32.90
2022-08-10T15:53:00.769Z,33.00
2022-08-10T15:55:44.361Z,33.20
2022-08-10T15:58:39.964Z,33.20
2022-08-10T16:02:13.608Z,33.50
2022-08-10T16:04:43.477Z,33.10
2022-08-10T16:07:49.120Z,32.70
2022-08-10T16:10:26.832Z,32.20
2022-08-10T16:13:50.334Z,32.70
2022-08-10T16:15:59.318Z,33.60
2022-08-10T16:18:29.130Z,32.70
2022-08-10T16:21:05.433Z,32.70
2022-08-10T16:23:36.494Z,33.40
2022-08-10T16:26:15.282Z,33.70
2022-08-10T16:28:57.594Z,33.60
2022-08-10T16:31:26.825Z,32.70
2022-08-10T16:33:56.813Z,32.80
2022-08-10T16:36:36.964Z,32.90
2022-08-10T16:39:05.065Z,33.40
2022-08-10T16:42:02.623Z,33.30
2022-08-10T16:44:22.762Z,33.00
2022-08-10T16:46:50.447Z,32.50
2022-08-10T16:49:18.682Z,32.40
2022-08-10T16:51:50.889Z,33.00
2022-08-10T16:54:26.493Z,32.10
2022-08-10T16:57:03.429Z,31.70
2022-08-10T16:59:36.529Z,31.20
2022-08-10T17:02:05.718Z,31.00
2022-08-10T17:04:34.252Z,31.00
2022-08-10T17:07:07.258Z,31.00
2022-08-10T17:09:37.199Z,31.10
2022-08-10T17:12:11.528Z,31.30
2022-08-10T17:14:40.510Z,31.20
2022-08-10T17:17:13.833Z,31.50
2022-08-10T17:19:45.062Z,31.50
2022-08-10T17:22:16.113Z,31.60
2022-08-10T17:24:53.302Z,31.20
2022-08-10T17:28:04.910Z,30.50
2022-08-10T17:30:16.207Z,30.10
2022-08-10T17:33:09.433Z,29.70
2022-08-10T17:35:37.827Z,29.60
2022-08-10T17:38:14.622Z,30.20
2022-08-10T17:40:50.649Z,30.70
2022-08-10T17:43:58.528Z,30.70
2022-08-10T17:46:14.027Z,30.50
2022-08-10T17:48:43.455Z,30.70
2022-08-10T17:51:15.606Z,31.40
2022-08-10T17:53:47.451Z,31.20
2022-08-10T17:56:17.338Z,30.80
2022-08-10T17:58:56.487Z,30.70
2022-08-10T18:01:41.533Z,30.80
2022-08-10T18:04:18.877Z,30.20
2022-08-10T18:06:54.133Z,29.60
2022-08-10T18:09:35.433Z,29.30
2022-08-10T18:12:18.315Z,29.40
2022-08-10T18:14:49.073Z,29.00
2022-08-10T18:17:24.718Z,28.80
2022-08-10T18:20:00.043Z,28.60
2022-08-10T18:22:28.038Z,28.60
2022-08-10T18:24:58.573Z,28.90
2022-08-10T18:28:01.139Z,29.00
2022-08-10T18:30:20.655Z,28.70
2022-08-10T18:32:55.609Z,28.10
2022-08-10T18:35:35.053Z,27.50
2022-08-10T18:38:04.714Z,26.70
2022-08-10T18:40:35.775Z,26.10
2022-08-10T18:44:05.886Z,25.60
2022-08-10T18:46:00.001Z,25.20
2022-08-10T18:48:37.320Z,24.80
2022-08-10T18:51:07.112Z,24.50
2022-08-10T18:53:48.600Z,24.10
2022-08-10T18:56:22.291Z,23.80
2022-08-10T18:59:26.318Z,23.50
2022-08-10T19:02:14.642Z,23.30
2022-08-10T19:05:06.749Z,23.10
2022-08-10T19:08:12.612Z,23.00
2022-08-10T19:10:51.877Z,22.80
2022-08-10T19:13:22.282Z,22.40
2022-08-10T19:16:15.069Z,22.30
2022-08-10T19:18:59.845Z,22.00
2022-08-10T19:21:38.609Z,21.80
2022-08-10T19:24:27.149Z,21.60
2022-08-10T19:26:57.181Z,21.50
2022-08-10T19:30:09.187Z,21.40
2022-08-10T19:32:42.088Z,21.50
2022-08-10T19:35:35.395Z,21.40
2022-08-10T19:38:49.564Z,21.40
2022-08-10T19:41:32.458Z,21.20
2022-08-10T19:44:42.577Z,21.20
2022-08-10T19:47:42.179Z,21.10
2022-08-10T19:50:21.710Z,21.00
2022-08-10T19:53:04.311Z,21.00
2022-08-10T19:55:41.022Z,20.90
2022-08-10T19:58:24.749Z,20.80
2022-08-10T20:01:05.177Z,20.50
2022-08-10T20:03:50.644Z,20.20
2022-08-10T20:06:25.404Z,20.00
2022-08-10T20:09:10.861Z,19.80
2022-08-10T20:11:57.252Z,19.60
2022-08-10T20:14:42.419Z,19.40
2022-08-10T20:17:19.942Z,19.20
2022-08-10T20:20:09.743Z,19.00
2022-08-10T20:22:46.424Z,18.90
2022-08-10T20:25:18.457Z,18.80
2022-08-10T20:28:00.279Z,18.70
2022-08-10T20:30:35.339Z,18.50
2022-08-10T20:33:12.719Z,18.50
2022-08-10T20:35:53.848Z,18.30
2022-08-10T20:38:33.474Z,18.20
2022-08-10T20:41:06.374Z,18.10
2022-08-10T20:44:17.654Z,17.90
2022-08-10T20:47:22.397Z,17.80
2022-08-10T20:50:02.427Z,17.70
2022-08-10T20:52:31.908Z,17.60
2022-08-10T20:55:03.507Z,17.50
2022-08-10T20:57:56.645Z,17.50
2022-08-10T21:00:46.737Z,17.30
2022-08-10T21:03:31.744Z,17.30
2022-08-10T21:06:04.062Z,17.30
2022-08-10T21:08:59.407Z,17.30
2022-08-10T21:11:45.005Z,17.30
2022-08-10T21:14:20.995Z,17.30
2022-08-10T21:17:25.719Z,17.30
2022-08-10T21:20:15.444Z,17.20
2022-08-10T21:22:46.124Z,17.10
2022-08-10T21:25:29.752Z,17.00
2022-08-10T21:28:00.163Z,17.00
2022-08-10T21:31:12.916Z,16.90
2022-08-10T21:34:09.270Z,16.90
2022-08-10T21:36:51.542Z,16.80
2022-08-10T21:39:50.722Z,16.90
2022-08-10T21:42:46.156Z,16.90
2022-08-10T21:46:00.477Z,16.90
2022-08-10T21:48:57.867Z,17.00
2022-08-10T21:52:22.910Z,17.00
2022-08-10T21:55:22.167Z,17.00
2022-08-10T21:58:17.581Z,17.00
2022-08-10T22:01:10.147Z,17.10
2022-08-10T22:04:01.556Z,17.10
2022-08-10T22:06:53.443Z,17.10
2022-08-10T22:09:47.825Z,17.20
2022-08-10T22:12:38.784Z,17.10
2022-08-10T22:16:03.226Z,17.00
2022-08-10T22:18:59.493Z,16.80
2022-08-10T22:22:27.265Z,16.60
2022-08-10T22:25:21.172Z,16.50
2022-08-10T22:28:17.635Z,16.40
2022-08-10T22:35:03.606Z,16.40
2022-08-10T22:38:08.323Z,16.40
2022-08-10T22:40:54.321Z,16.30
2022-08-10T22:43:53.715Z,16.30
2022-08-10T22:46:44.936Z,16.20
2022-08-10T22:49:12.345Z,16.20
2022-08-10T22:51:57.133Z,16.10
2022-08-10T22:54:58.753Z,16.10
2022-08-10T22:57:45.206Z,16.00
2022-08-10T23:00:18.689Z,15.90
2022-08-10T23:02:58.820Z,15.80
2022-08-10T23:05:38.124Z,15.80
2022-08-10T23:08:29.908Z,15.80
2022-08-10T23:11:06.479Z,15.80
2022-08-10T23:13:38.489Z,15.70
2022-08-10T23:16:33.575Z,15.70
2022-08-10T23:19:12.756Z,15.70
2022-08-10T23:22:04.877Z,15.70
2022-08-10T23:24:52.447Z,15.60
2022-08-10T23:27:39.261Z,15.70
2022-08-10T23:30:17.194Z,15.60
2022-08-10T23:32:59.153Z,15.50
2022-08-10T23:36:31.312Z,15.50
2022-08-10T23:38:26.041Z,15.50
2022-08-10T23:40:57.891Z,15.40
2022-08-10T23:44:00.437Z,15.30
2022-08-10T23:46:24.309Z,15.30
2022-08-10T23:48:55.496Z,15.20
2022-08-10T23:51:55.136Z,15.10
2022-08-10T23:54:24.715Z,15.10
2022-08-10T23:57:00.694Z,15.10
2022-08-10T23:59:32.603Z,15.00
